createdAt,value
2017-10-17T00:00:53.725Z,62.58
2017-10-17T00:03:22.946Z,62.63
2017-10-17T00:05:52.159Z,62.53
2017-10-17T00:08:22.872Z,62.89
2017-10-17T00:10:52.107Z,62.92
2017-10-17T00:13:21.302Z,62.83
2017-10-17T00:15:51.284Z,63.37
2017-10-17T00:18:20.971Z,63.13
2017-10-17T00:20:50.176Z,63.28
2017-10-17T00:23:19.431Z,63.40
2017-10-17T00:25:49.415Z,63.86
2017-10-17T00:28:18.625Z,63.42
2017-10-17T00:30:50.152Z,63.93
2017-10-17T00:33:21.128Z,63.85
2017-10-17T00:35:56.516Z,64.09
2017-10-17T00:38:26.502Z,63.79
2017-10-17T00:40:55.726Z,64.15
2017-10-17T00:43:25.687Z,64.58
2017-10-17T00:45:55.832Z,64.74
2017-10-17T00:48:25.068Z,64.94
2017-10-17T00:50:54.297Z,64.91
2017-10-17T00:53:24.363Z,65.24
2017-10-17T00:55:53.659Z,65.40
2017-10-17T00:58:26.504Z,65.08
2017-10-17T01:00:55.809Z,65.50
2017-10-17T01:03:27.975Z,65.39
2017-10-17T01:05:57.279Z,65.47
2017-10-17T01:08:27.232Z,65.65
2017-10-17T01:10:56.477Z,65.56
2017-10-17T01:13:26.472Z,65.83
2017-10-17T01:15:55.782Z,66.00
2017-10-17T01:18:25.015Z,65.92
2017-10-17T01:20:56.825Z,66.16
2017-10-17T01:37:01.700Z,66.61
2017-10-17T01:39:33.772Z,66.79
2017-10-17T01:42:03.052Z,66.94
2017-10-17T01:44:35.564Z,67.13
2017-10-17T01:47:07.727Z,67.30
2017-10-17T01:49:55.203Z,67.28
2017-10-17T01:52:27.819Z,67.53
2017-10-17T01:55:01.860Z,67.62
2017-10-17T01:57:34.733Z,68.00
2017-10-17T02:00:03.922Z,67.88
2017-10-17T02:02:33.224Z,67.73
2017-10-17T02:05:02.486Z,67.99
2017-10-17T02:07:32.479Z,67.96
2017-10-17T02:10:08.204Z,68.29
2017-10-17T02:12:37.472Z,68.13
2017-10-17T02:15:06.715Z,67.73
2017-10-17T02:17:36.746Z,68.00
2017-10-17T02:20:06.039Z,67.86
2017-10-17T02:22:36.705Z,67.70
2017-10-17T02:38:29.136Z,68.17
2017-10-17T02:41:02.218Z,68.21
2017-10-17T02:43:38.451Z,68.45
2017-10-17T02:46:07.648Z,68.50
2017-10-17T02:48:48.415Z,68.13
2017-10-17T02:51:19.157Z,68.36
2017-10-17T02:53:48.516Z,68.17
2017-10-17T02:56:17.748Z,68.40
2017-10-17T02:58:47.034Z,68.06
2017-10-17T03:01:16.980Z,68.38
2017-10-17T03:03:49.718Z,68.26
2017-10-17T03:06:18.976Z,68.48
2017-10-17T03:08:48.931Z,68.24
2017-10-17T03:11:18.226Z,68.10
2017-10-17T03:13:49.003Z,67.83
2017-10-17T03:16:19.090Z,68.14
2017-10-17T03:18:49.731Z,67.89
2017-10-17T03:21:23.462Z,67.67
2017-10-17T03:24:13.647Z,67.95
2017-10-17T03:26:43.648Z,67.90
2017-10-17T03:29:12.872Z,67.85
2017-10-17T03:31:42.121Z,67.83
2017-10-17T03:34:25.832Z,67.99
2017-10-17T03:50:44.119Z,68.84
2017-10-17T04:07:06.227Z,69.22
2017-10-17T04:09:39.983Z,69.56
2017-10-17T04:12:09.203Z,69.56
2017-10-17T04:14:55.205Z,69.55
2017-10-17T04:18:01.500Z,69.91
2017-10-17T04:20:45.289Z,70.05
2017-10-17T04:37:02.239Z,70.85
2017-10-17T04:39:32.276Z,70.86
2017-10-17T04:42:28.225Z,71.09
2017-10-17T04:59:08.139Z,72.18
2017-10-17T05:01:37.356Z,72.33
2017-10-17T05:04:13.069Z,72.46
2017-10-17T05:06:43.060Z,72.54
2017-10-17T05:09:23.707Z,72.64
2017-10-17T05:11:52.899Z,72.78
2017-10-17T05:14:43.212Z,72.69
2017-10-17T05:17:18.599Z,72.59
2017-10-17T05:19:50.375Z,72.61
2017-10-17T05:22:24.170Z,72.85
2017-10-17T05:25:00.774Z,72.81
2017-10-17T05:41:32.434Z,74.11
2017-10-17T05:57:41.762Z,75.49
2017-10-17T06:00:11.224Z,75.70
2017-10-17T06:02:40.824Z,75.48
2017-10-17T06:05:10.065Z,75.45
2017-10-17T06:07:39.275Z,75.83
2017-10-17T06:10:09.281Z,75.86
2017-10-17T06:12:38.491Z,76.08
2017-10-17T06:15:08.504Z,76.33
2017-10-17T06:17:38.531Z,76.62
2017-10-17T06:20:08.529Z,77.20
2017-10-17T06:22:37.752Z,76.84
2017-10-17T06:25:07.750Z,77.05
2017-10-17T06:27:37.749Z,77.08
2017-10-17T06:30:08.502Z,77.15
2017-10-17T06:32:38.490Z,77.13
2017-10-17T06:35:07.759Z,76.92
2017-10-17T06:37:36.979Z,76.96
2017-10-17T06:40:06.197Z,76.76
2017-10-17T06:42:35.455Z,77.09
2017-10-17T06:45:04.651Z,77.23
2017-10-17T06:47:33.855Z,77.12
2017-10-17T06:50:03.111Z,77.03
2017-10-17T06:52:33.121Z,77.14
2017-10-17T06:55:02.396Z,77.21
2017-10-17T06:57:31.739Z,77.08
2017-10-17T07:00:01.009Z,77.16
2017-10-17T07:02:30.254Z,77.40
2017-10-17T07:04:59.467Z,77.20
2017-10-17T07:07:28.700Z,77.04
2017-10-17T07:09:58.011Z,77.15
2017-10-17T07:12:28.863Z,77.18
2017-10-17T07:14:58.827Z,77.04
2017-10-17T07:17:28.069Z,76.62
2017-10-17T07:19:58.039Z,76.35
2017-10-17T07:22:27.274Z,76.17
2017-10-17T07:24:57.256Z,76.32
2017-10-17T07:27:26.479Z,76.47
2017-10-17T07:29:56.093Z,76.35
2017-10-17T07:32:26.522Z,76.13
2017-10-17T07:34:55.795Z,76.14
2017-10-17T07:37:25.004Z,76.41
2017-10-17T07:39:54.249Z,76.36
2017-10-17T07:42:23.491Z,76.44
2017-10-17T07:44:52.699Z,76.40
2017-10-17T07:47:21.982Z,76.16
2017-10-17T07:49:51.387Z,76.10
2017-10-17T07:52:20.648Z,76.27
2017-10-17T07:54:49.863Z,76.24
2017-10-17T07:57:19.095Z,75.88
2017-10-17T07:59:48.319Z,75.91
2017-10-17T08:02:17.548Z,75.85
2017-10-17T08:04:46.775Z,75.51
2017-10-17T08:07:15.996Z,75.46
2017-10-17T08:09:45.993Z,75.12
2017-10-17T08:12:15.244Z,75.01
2017-10-17T08:14:44.460Z,74.98
2017-10-17T08:17:13.768Z,74.97
2017-10-17T08:19:42.979Z,75.63
2017-10-17T08:22:12.255Z,75.07
2017-10-17T08:24:41.466Z,75.24
2017-10-17T08:27:10.788Z,75.14
2017-10-17T08:29:40.023Z,74.96
2017-10-17T08:32:09.227Z,75.16
2017-10-17T08:34:38.462Z,75.31
2017-10-17T08:37:07.663Z,75.14
2017-10-17T08:39:37.656Z,75.44
2017-10-17T08:42:06.907Z,74.75
2017-10-17T08:44:36.999Z,75.13
2017-10-17T08:47:06.220Z,74.60
2017-10-17T08:49:36.228Z,74.83
2017-10-17T08:52:06.203Z,74.59
2017-10-17T08:54:35.448Z,74.44
2017-10-17T08:57:05.428Z,74.27
2017-10-17T08:59:34.635Z,74.51
2017-10-17T09:02:05.378Z,74.20
2017-10-17T09:04:34.587Z,74.27
2017-10-17T09:07:04.724Z,74.25
2017-10-17T09:09:34.706Z,74.33
2017-10-17T09:12:03.947Z,74.57
2017-10-17T09:14:33.886Z,74.80
2017-10-17T09:17:03.148Z,74.64
2017-10-17T09:19:33.113Z,74.53
2017-10-17T09:22:02.332Z,74.47
2017-10-17T09:24:31.550Z,74.89
2017-10-17T09:27:01.561Z,74.59
2017-10-17T09:29:30.788Z,74.88
2017-10-17T09:32:00.020Z,75.36
2017-10-17T09:34:29.265Z,75.42
2017-10-17T09:36:59.348Z,75.76
2017-10-17T09:39:28.576Z,75.75
2017-10-17T09:41:58.548Z,75.77
2017-10-17T09:44:27.792Z,75.46
2017-10-17T09:46:57.772Z,75.30
2017-10-17T09:49:26.996Z,75.21
2017-10-17T09:51:56.987Z,75.40
2017-10-17T09:54:26.215Z,75.14
2017-10-17T09:56:56.212Z,75.19
2017-10-17T09:59:25.428Z,75.00
2017-10-17T10:01:55.443Z,75.35
2017-10-17T10:04:25.407Z,75.28
2017-10-17T10:06:54.651Z,75.23
2017-10-17T10:09:23.959Z,75.40
2017-10-17T10:11:53.473Z,75.31
2017-10-17T10:14:22.696Z,75.39
2017-10-17T10:16:51.927Z,75.04
2017-10-17T10:19:21.158Z,75.32
2017-10-17T10:21:51.136Z,74.93
2017-10-17T10:24:20.380Z,75.03
2017-10-17T10:26:49.588Z,74.78
2017-10-17T10:29:18.828Z,74.78
2017-10-17T10:31:48.032Z,74.71
2017-10-17T10:34:17.259Z,74.32
2017-10-17T10:36:47.330Z,74.36
2017-10-17T10:39:16.551Z,73.51
2017-10-17T10:41:46.059Z,73.33
2017-10-17T10:44:15.281Z,73.20
2017-10-17T10:46:45.275Z,72.87
2017-10-17T10:49:15.257Z,72.34
2017-10-17T10:51:44.489Z,72.52
2017-10-17T10:54:13.683Z,72.72
2017-10-17T10:56:42.916Z,73.04
2017-10-17T10:59:12.137Z,72.87
2017-10-17T11:01:41.363Z,72.75
2017-10-17T11:04:10.568Z,72.26
2017-10-17T11:06:39.799Z,71.69
2017-10-17T11:09:09.048Z,71.58
2017-10-17T11:11:38.266Z,71.48
2017-10-17T11:14:07.491Z,71.69
2017-10-17T11:16:37.494Z,70.81
2017-10-17T11:19:06.733Z,70.64
2017-10-17T11:21:35.940Z,70.67
2017-10-17T11:24:05.194Z,70.74
2017-10-17T11:26:35.167Z,70.63
2017-10-17T11:29:04.407Z,70.73
2017-10-17T11:31:34.379Z,70.26
2017-10-17T11:34:03.617Z,70.61
2017-10-17T11:36:32.851Z,70.46
2017-10-17T11:39:02.858Z,70.28
2017-10-17T11:55:09.671Z,70.03
2017-10-17T11:57:40.396Z,70.01
2017-10-17T12:00:09.665Z,69.53
2017-10-17T12:02:38.892Z,69.70
2017-10-17T12:05:08.132Z,69.75
2017-10-17T12:07:38.199Z,69.75
2017-10-17T12:10:07.658Z,69.94
2017-10-17T12:12:37.783Z,69.33
2017-10-17T12:15:07.028Z,68.69
2017-10-17T12:17:36.273Z,68.25
2017-10-17T12:20:05.505Z,69.06
2017-10-17T12:22:34.872Z,69.46
2017-10-17T12:25:04.118Z,70.27
2017-10-17T12:27:33.375Z,70.32
2017-10-17T12:30:02.716Z,68.69
2017-10-17T12:32:31.963Z,70.00
2017-10-17T12:35:01.923Z,69.73
2017-10-17T12:37:31.290Z,68.63
2017-10-17T12:40:00.518Z,69.06
2017-10-17T12:42:29.753Z,69.45
2017-10-17T12:44:58.973Z,70.22
2017-10-17T12:47:28.178Z,69.62
2017-10-17T12:49:57.407Z,69.93
2017-10-17T12:52:26.638Z,69.39
2017-10-17T12:54:55.864Z,68.73
2017-10-17T12:57:25.887Z,69.45
2017-10-17T12:59:56.009Z,69.49
2017-10-17T13:04:48.063Z,69.07
2017-10-17T13:07:17.658Z,68.94
2017-10-17T13:09:47.625Z,69.99
2017-10-17T13:12:20.038Z,69.78
2017-10-17T13:14:50.055Z,70.78
2017-10-17T13:17:20.072Z,70.92
2017-10-17T13:19:50.091Z,70.62
2017-10-17T13:22:19.336Z,70.34
2017-10-17T13:24:48.622Z,71.11
2017-10-17T13:27:17.847Z,71.29
2017-10-17T13:29:47.219Z,71.53
2017-10-17T13:32:16.537Z,71.67
2017-10-17T13:34:45.828Z,71.19
2017-10-17T13:37:15.101Z,71.53
2017-10-17T13:39:44.438Z,70.89
2017-10-17T13:42:14.267Z,71.02
2017-10-17T13:44:43.523Z,71.29
2017-10-17T13:47:12.751Z,71.15
2017-10-17T13:49:42.129Z,71.21
2017-10-17T13:52:11.383Z,71.16
2017-10-17T13:54:41.368Z,71.03
2017-10-17T13:57:10.587Z,70.69
2017-10-17T13:59:39.863Z,70.63
2017-10-17T14:02:09.277Z,70.82
2017-10-17T14:04:38.490Z,70.76
2017-10-17T14:07:08.498Z,70.68
2017-10-17T14:09:38.535Z,70.39
2017-10-17T14:12:08.540Z,70.64
2017-10-17T14:14:38.552Z,70.41
2017-10-17T14:17:08.568Z,70.41
2017-10-17T14:19:38.703Z,70.19
2017-10-17T14:22:08.672Z,70.06
2017-10-17T14:24:37.933Z,70.03
2017-10-17T14:27:07.155Z,69.99
2017-10-17T14:29:36.397Z,70.08
2017-10-17T14:32:06.471Z,70.37
2017-10-17T14:34:35.708Z,70.74
2017-10-17T14:37:04.919Z,70.73
2017-10-17T14:39:35.021Z,71.05
2017-10-17T14:42:04.243Z,71.32
2017-10-17T14:44:34.215Z,71.32
2017-10-17T14:47:03.442Z,71.17
2017-10-17T14:49:33.452Z,71.23
2017-10-17T14:52:02.701Z,71.20
2017-10-17T14:54:31.915Z,71.10
2017-10-17T14:57:01.255Z,71.17
2017-10-17T14:59:31.252Z,71.12
2017-10-17T15:02:00.511Z,71.07
2017-10-17T15:04:29.723Z,70.98
2017-10-17T15:06:58.957Z,70.89
2017-10-17T15:09:29.667Z,70.72
2017-10-17T15:11:58.917Z,70.87
2017-10-17T15:14:28.141Z,71.23
2017-10-17T15:16:57.367Z,70.91
2017-10-17T15:19:26.728Z,71.23
2017-10-17T15:21:55.980Z,71.37
2017-10-17T15:24:25.220Z,71.96
2017-10-17T15:26:55.228Z,72.26
2017-10-17T15:29:24.485Z,72.30
2017-10-17T15:31:53.751Z,72.28
2017-10-17T15:34:22.986Z,72.45
2017-10-17T15:36:52.203Z,72.62
2017-10-17T15:39:22.208Z,72.61
2017-10-17T15:41:51.710Z,72.67
2017-10-17T15:44:21.733Z,73.03
2017-10-17T15:46:51.740Z,73.08
2017-10-17T15:51:57.099Z,73.94
2017-10-17T15:54:26.328Z,73.79
2017-10-17T15:56:55.607Z,74.04
2017-10-17T15:59:25.672Z,74.46
2017-10-17T16:01:54.927Z,75.37
2017-10-17T16:04:24.935Z,75.92
2017-10-17T16:06:54.961Z,76.17
2017-10-17T16:09:24.984Z,77.07
2017-10-17T16:11:54.192Z,77.66
2017-10-17T16:14:23.439Z,77.93
2017-10-17T16:16:52.748Z,77.56
2017-10-17T16:19:22.020Z,77.83
2017-10-17T16:21:51.244Z,78.29
2017-10-17T16:24:20.496Z,78.75
2017-10-17T16:26:49.717Z,79.00
2017-10-17T16:29:18.940Z,79.01
2017-10-17T16:31:48.160Z,78.81
2017-10-17T16:34:18.172Z,78.74
2017-10-17T16:36:48.177Z,78.82
2017-10-17T16:39:17.445Z,78.83
2017-10-17T16:41:46.699Z,79.01
2017-10-17T16:44:15.933Z,79.11
2017-10-17T16:46:45.160Z,79.49
2017-10-17T16:49:14.547Z,79.92
2017-10-17T16:51:43.791Z,80.32
2017-10-17T16:54:13.781Z,80.67
2017-10-17T16:56:43.069Z,80.80
2017-10-17T16:59:12.419Z,80.63
2017-10-17T17:01:41.689Z,80.64
2017-10-17T17:04:10.922Z,80.90
2017-10-17T17:06:40.145Z,80.65
2017-10-17T17:09:09.432Z,80.91
2017-10-17T17:11:38.690Z,81.19
2017-10-17T17:14:08.737Z,81.08
2017-10-17T17:16:37.964Z,80.93
2017-10-17T17:19:07.225Z,81.40
2017-10-17T17:21:36.463Z,81.79
2017-10-17T17:24:05.729Z,82.16
2017-10-17T17:26:35.026Z,82.50
2017-10-17T17:29:04.277Z,83.05
2017-10-17T17:31:33.511Z,83.24
2017-10-17T17:34:03.533Z,83.37
2017-10-17T17:36:32.761Z,83.25
2017-10-17T17:39:02.037Z,82.99
2017-10-17T17:41:31.268Z,82.58
2017-10-17T17:44:00.503Z,82.37
2017-10-17T17:46:29.767Z,82.29
2017-10-17T17:48:59.065Z,82.59
2017-10-17T17:51:28.332Z,82.94
2017-10-17T17:53:57.636Z,83.41
2017-10-17T17:56:26.884Z,83.23
2017-10-17T17:58:56.119Z,83.04
2017-10-17T18:01:25.574Z,82.82
2017-10-17T18:03:54.828Z,82.75
2017-10-17T18:06:24.063Z,83.00
2017-10-17T18:08:53.369Z,83.19
2017-10-17T18:11:22.595Z,83.38
2017-10-17T18:13:52.592Z,83.11
2017-10-17T18:16:21.840Z,83.18
2017-10-17T18:18:51.088Z,83.01
2017-10-17T18:21:20.297Z,83.05
2017-10-17T18:23:50.344Z,83.31
2017-10-17T18:26:19.629Z,83.50
2017-10-17T18:28:48.878Z,83.60
2017-10-17T18:31:18.121Z,83.69
2017-10-17T18:33:48.146Z,84.17
2017-10-17T18:36:17.490Z,84.56
2017-10-17T18:38:46.738Z,84.68
2017-10-17T18:41:16.135Z,84.78
2017-10-17T18:43:46.156Z,84.74
2017-10-17T18:46:16.159Z,84.86
2017-10-17T18:48:46.140Z,85.19
2017-10-17T18:51:15.381Z,85.28
2017-10-17T18:53:45.407Z,85.48
2017-10-17T18:56:14.672Z,85.43
2017-10-17T18:58:43.917Z,85.28
2017-10-17T19:01:13.148Z,85.11
2017-10-17T19:03:42.397Z,84.90
2017-10-17T19:06:12.414Z,84.51
2017-10-17T19:08:41.667Z,84.26
2017-10-17T19:11:10.920Z,84.73
2017-10-17T19:13:40.131Z,85.15
2017-10-17T19:16:09.401Z,85.71
2017-10-17T19:18:39.388Z,86.31
2017-10-17T19:21:08.668Z,87.01
2017-10-17T19:23:37.952Z,86.85
2017-10-17T19:26:07.198Z,86.50
2017-10-17T19:28:37.328Z,86.32
2017-10-17T19:31:07.355Z,86.37
2017-10-17T19:33:37.375Z,86.18
2017-10-17T19:36:06.634Z,86.18
2017-10-17T19:38:35.910Z,86.59
2017-10-17T19:41:05.135Z,86.22
2017-10-17T19:43:34.404Z,86.18
2017-10-17T19:46:03.643Z,86.29
2017-10-17T19:48:33.702Z,86.69
2017-10-17T19:51:02.937Z,86.72
2017-10-17T19:53:32.166Z,86.83
2017-10-17T19:56:02.201Z,86.74
2017-10-17T19:58:31.464Z,87.25
2017-10-17T20:01:01.786Z,87.02
2017-10-17T20:03:31.010Z,86.94
2017-10-17T20:06:00.293Z,86.69
2017-10-17T20:08:30.305Z,86.68
2017-10-17T20:10:59.580Z,86.72
2017-10-17T20:13:28.820Z,86.69
2017-10-17T20:15:58.118Z,86.51
2017-10-17T20:18:28.128Z,86.51
2017-10-17T20:20:58.200Z,86.53
2017-10-17T20:23:27.628Z,86.52
2017-10-17T20:25:56.951Z,86.39
2017-10-17T20:28:26.172Z,86.19
2017-10-17T20:30:55.431Z,86.10
2017-10-17T20:33:25.437Z,86.24
2017-10-17T20:35:54.677Z,86.21
2017-10-17T20:38:23.925Z,86.13
2017-10-17T20:40:53.166Z,85.98
2017-10-17T20:43:22.411Z,86.02
2017-10-17T20:45:52.677Z,86.12
2017-10-17T20:48:22.698Z,86.27
2017-10-17T20:50:52.713Z,86.32
2017-10-17T20:53:22.060Z,86.17
2017-10-17T20:55:51.307Z,86.18
2017-10-17T20:58:21.304Z,86.26
2017-10-17T21:00:50.557Z,86.42
2017-10-17T21:03:20.002Z,86.55
2017-10-17T21:05:49.255Z,86.77
2017-10-17T21:08:18.493Z,86.93
2017-10-17T21:10:47.767Z,87.28
2017-10-17T21:13:17.008Z,87.47
2017-10-17T21:15:47.022Z,87.57
2017-10-17T21:18:17.040Z,87.52
2017-10-17T21:20:46.284Z,88.37
2017-10-17T21:23:15.511Z,88.24
2017-10-17T21:25:44.744Z,88.04
2017-10-17T21:28:14.723Z,87.70
2017-10-17T21:30:46.404Z,87.63
2017-10-17T21:33:16.440Z,87.39
2017-10-17T21:35:46.436Z,87.08
2017-10-17T21:51:21.500Z,88.79
2017-10-17T21:53:50.723Z,89.25
2017-10-17T21:56:19.917Z,89.83
2017-10-17T21:58:49.166Z,90.34
2017-10-17T22:01:18.401Z,90.67
2017-10-17T22:03:47.657Z,90.91
2017-10-17T22:06:19.337Z,90.82
2017-10-17T22:08:51.517Z,90.96
2017-10-17T22:11:21.580Z,90.83
2017-10-17T22:13:50.828Z,90.61
2017-10-17T22:16:20.075Z,90.54
2017-10-17T22:18:49.319Z,90.35
2017-10-17T22:21:18.567Z,90.26
2017-10-17T22:23:47.817Z,90.14
2017-10-17T22:26:17.035Z,90.05
2017-10-17T22:28:46.244Z,89.80
2017-10-17T22:31:15.477Z,89.62
2017-10-17T22:33:45.537Z,89.28
2017-10-17T22:36:14.747Z,89.00
2017-10-17T22:38:43.956Z,89.00
2017-10-17T22:41:13.171Z,88.85
2017-10-17T22:43:42.430Z,88.62
2017-10-17T22:46:11.703Z,88.71
2017-10-17T22:48:41.076Z,88.81
2017-10-17T22:51:11.137Z,88.75
2017-10-17T22:53:40.385Z,88.66
2017-10-17T22:56:09.573Z,88.43
2017-10-17T22:58:38.929Z,88.12
2017-10-17T23:01:08.121Z,88.08
2017-10-17T23:03:37.377Z,87.95
2017-10-17T23:06:06.624Z,87.76
2017-10-17T23:08:35.875Z,87.55
2017-10-17T23:11:05.094Z,87.50
2017-10-17T23:13:35.090Z,87.41
2017-10-17T23:16:04.292Z,87.19
2017-10-17T23:32:20.772Z,86.58
2017-10-17T23:34:50.003Z,86.63
2017-10-17T23:37:19.208Z,86.28
2017-10-17T23:39:48.466Z,86.21
2017-10-17T23:42:17.663Z,86.88
2017-10-17T23:44:46.877Z,86.70
2017-10-17T23:47:16.879Z,86.42
2017-10-17T23:49:46.167Z,86.44
2017-10-17T23:52:15.580Z,86.85
2017-10-17T23:54:44.840Z,87.33
2017-10-17T23:57:14.052Z,87.94
2017-10-17T23:59:43.283Z,87.94
